X  CloseMetar Aviation Weather Data     ENZV Stavanger , Sola

Temperature

12°C Temperature

9°C Dewpoint

82% Humidity



Wind

10 KM/H

 6 MPH

 3 M/S

 5 KTS



280°
Due West
Current Conditions

Mostly Scattered Clouds Mostly Scattered Clouds
Pressure 1009.92 (hPa) - 29.82 (in)
Visibility 6.2 (mi) - 10 (km)
Airport
Airport-code ENZV

Location Stavanger , Sola 100 (km)

Metar:
ENZV 261220Z 28005KT 9999 SCT044 BKN090 12/09 Q1010 NOSIG

Time: 26-04-2019 14:20